sensor_id;sensor_type;location;lat;lon;timestamp;temperature;humidity
28845;DHT22;15976;47.938;7.758;2022-11-27T00:01:26;8.30;77.70
28845;DHT22;15976;47.938;7.758;2022-11-27T00:03:54;8.40;77.90
28845;DHT22;15976;47.938;7.758;2022-11-27T00:06:24;8.40;77.80
28845;DHT22;15976;47.938;7.758;2022-11-27T00:08:51;8.40;77.80
28845;DHT22;15976;47.938;7.758;2022-11-27T00:11:20;8.40;77.90
28845;DHT22;15976;47.938;7.758;2022-11-27T00:13:49;8.50;78.20
28845;DHT22;15976;47.938;7.758;2022-11-27T00:16:18;8.60;78.20
28845;DHT22;15976;47.938;7.758;2022-11-27T00:18:46;8.70;78.10
28845;DHT22;15976;47.938;7.758;2022-11-27T00:21:20;8.70;77.90
28845;DHT22;15976;47.938;7.758;2022-11-27T00:23:51;8.70;77.40
28845;DHT22;15976;47.938;7.758;2022-11-27T00:26:19;8.80;77.20
28845;DHT22;15976;47.938;7.758;2022-11-27T00:28:47;8.80;77.30
28845;DHT22;15976;47.938;7.758;2022-11-27T00:31:19;8.80;77.30
28845;DHT22;15976;47.938;7.758;2022-11-27T00:33:48;8.80;77.00
28845;DHT22;15976;47.938;7.758;2022-11-27T00:36:15;8.80;76.70
28845;DHT22;15976;47.938;7.758;2022-11-27T00:38:42;8.70;76.40
28845;DHT22;15976;47.938;7.758;2022-11-27T00:41:11;8.70;76.30
28845;DHT22;15976;47.938;7.758;2022-11-27T00:43:40;8.70;76.10
28845;DHT22;15976;47.938;7.758;2022-11-27T00:46:18;8.60;76.10
28845;DHT22;15976;47.938;7.758;2022-11-27T00:48:53;8.50;76.00
28845;DHT22;15976;47.938;7.758;2022-11-27T00:51:22;8.50;76.10
28845;DHT22;15976;47.938;7.758;2022-11-27T00:53:50;8.50;76.20
28845;DHT22;15976;47.938;7.758;2022-11-27T00:56:37;8.50;76.10
28845;DHT22;15976;47.938;7.758;2022-11-27T00:59:05;8.40;76.20
28845;DHT22;15976;47.938;7.758;2022-11-27T01:01:35;8.40;76.40
28845;DHT22;15976;47.938;7.758;2022-11-27T01:04:05;8.40;76.40
28845;DHT22;15976;47.938;7.758;2022-11-27T01:06:32;8.50;76.70
28845;DHT22;15976;47.938;7.758;2022-11-27T01:08:59;8.50;76.80
28845;DHT22;15976;47.938;7.758;2022-11-27T01:11:29;8.50;76.90
28845;DHT22;15976;47.938;7.758;2022-11-27T01:14:03;8.60;77.00
28845;DHT22;15976;47.938;7.758;2022-11-27T01:16:31;8.60;76.80
28845;DHT22;15976;47.938;7.758;2022-11-27T01:19:00;8.60;76.60
28845;DHT22;15976;47.938;7.758;2022-11-27T01:21:29;8.60;76.40
28845;DHT22;15976;47.938;7.758;2022-11-27T01:23:58;8.60;76.10
28845;DHT22;15976;47.938;7.758;2022-11-27T01:26:26;8.50;75.80
28845;DHT22;15976;47.938;7.758;2022-11-27T01:28:54;8.50;75.70
28845;DHT22;15976;47.938;7.758;2022-11-27T01:31:24;8.40;75.70
28845;DHT22;15976;47.938;7.758;2022-11-27T01:33:54;8.40;76.40
28845;DHT22;15976;47.938;7.758;2022-11-27T01:36:22;8.40;75.80
28845;DHT22;15976;47.938;7.758;2022-11-27T01:38:49;8.30;75.90
28845;DHT22;15976;47.938;7.758;2022-11-27T01:41:23;8.30;76.20
28845;DHT22;15976;47.938;7.758;2022-11-27T01:43:53;8.20;76.20
28845;DHT22;15976;47.938;7.758;2022-11-27T01:49:40;8.30;76.20
28845;DHT22;15976;47.938;7.758;2022-11-27T01:51:55;8.10;75.90
28845;DHT22;15976;47.938;7.758;2022-11-27T01:54:36;8.10;75.80
28845;DHT22;15976;47.938;7.758;2022-11-27T01:57:09;8.10;76.90
28845;DHT22;15976;47.938;7.758;2022-11-27T01:59:38;8.00;76.50
28845;DHT22;15976;47.938;7.758;2022-11-27T02:02:06;8.00;76.60
28845;DHT22;15976;47.938;7.758;2022-11-27T02:04:33;8.00;76.60
28845;DHT22;15976;47.938;7.758;2022-11-27T02:07:00;8.00;76.70
28845;DHT22;15976;47.938;7.758;2022-11-27T02:09:28;8.00;77.00
28845;DHT22;15976;47.938;7.758;2022-11-27T02:17:38;7.90;77.40
28845;DHT22;15976;47.938;7.758;2022-11-27T02:20:35;7.90;77.30
28845;DHT22;15976;47.938;7.758;2022-11-27T02:23:13;8.00;77.40
28845;DHT22;15976;47.938;7.758;2022-11-27T02:26:24;8.00;77.40
28845;DHT22;15976;47.938;7.758;2022-11-27T02:29:32;8.10;77.40
28845;DHT22;15976;47.938;7.758;2022-11-27T02:34:42;8.10;76.80
28845;DHT22;15976;47.938;7.758;2022-11-27T02:40:11;8.00;76.20
28845;DHT22;15976;47.938;7.758;2022-11-27T02:45:16;7.90;76.40
28845;DHT22;15976;47.938;7.758;2022-11-27T02:47:46;7.80;76.00
28845;DHT22;15976;47.938;7.758;2022-11-27T02:50:19;7.70;75.80
28845;DHT22;15976;47.938;7.758;2022-11-27T02:52:48;7.60;76.20
28845;DHT22;15976;47.938;7.758;2022-11-27T02:55:21;7.50;76.50
28845;DHT22;15976;47.938;7.758;2022-11-27T02:57:51;7.50;76.80
28845;DHT22;15976;47.938;7.758;2022-11-27T03:00:19;7.50;76.70
28845;DHT22;15976;47.938;7.758;2022-11-27T03:02:54;7.40;76.70
28845;DHT22;15976;47.938;7.758;2022-11-27T03:05:26;7.30;76.60
28845;DHT22;15976;47.938;7.758;2022-11-27T03:08:07;7.30;76.70
28845;DHT22;15976;47.938;7.758;2022-11-27T03:13:31;7.20;77.00
28845;DHT22;15976;47.938;7.758;2022-11-27T03:18:54;7.20;77.40
28845;DHT22;15976;47.938;7.758;2022-11-27T03:21:37;7.10;76.50
28845;DHT22;15976;47.938;7.758;2022-11-27T03:24:09;7.10;76.80
28845;DHT22;15976;47.938;7.758;2022-11-27T03:26:38;7.10;76.70
28845;DHT22;15976;47.938;7.758;2022-11-27T03:29:10;7.10;76.80
28845;DHT22;15976;47.938;7.758;2022-11-27T03:31:37;7.10;77.10
28845;DHT22;15976;47.938;7.758;2022-11-27T03:34:05;7.20;77.10
28845;DHT22;15976;47.938;7.758;2022-11-27T03:36:32;7.20;76.90
28845;DHT22;15976;47.938;7.758;2022-11-27T03:38:59;7.10;76.80
28845;DHT22;15976;47.938;7.758;2022-11-27T04:01:25;7.30;77.30
28845;DHT22;15976;47.938;7.758;2022-11-27T04:03:53;7.40;77.40
28845;DHT22;15976;47.938;7.758;2022-11-27T04:06:20;7.40;77.10
28845;DHT22;15976;47.938;7.758;2022-11-27T04:08:47;7.40;76.80
28845;DHT22;15976;47.938;7.758;2022-11-27T04:11:15;7.30;77.00
28845;DHT22;15976;47.938;7.758;2022-11-27T04:13:42;7.30;77.20
28845;DHT22;15976;47.938;7.758;2022-11-27T04:16:09;7.30;77.60
28845;DHT22;15976;47.938;7.758;2022-11-27T04:18:36;7.40;77.70
28845;DHT22;15976;47.938;7.758;2022-11-27T04:21:03;7.40;77.60
28845;DHT22;15976;47.938;7.758;2022-11-27T04:23:30;7.40;77.80
28845;DHT22;15976;47.938;7.758;2022-11-27T04:25:57;7.40;77.90
28845;DHT22;15976;47.938;7.758;2022-11-27T04:28:24;7.50;77.50
28845;DHT22;15976;47.938;7.758;2022-11-27T04:30:52;7.40;77.30
28845;DHT22;15976;47.938;7.758;2022-11-27T04:33:20;7.30;77.70
28845;DHT22;15976;47.938;7.758;2022-11-27T04:35:48;7.30;78.00
28845;DHT22;15976;47.938;7.758;2022-11-27T04:38:16;7.30;78.40
28845;DHT22;15976;47.938;7.758;2022-11-27T04:40:43;7.40;78.50
28845;DHT22;15976;47.938;7.758;2022-11-27T04:43:10;7.40;78.30
28845;DHT22;15976;47.938;7.758;2022-11-27T04:45:37;7.40;78.10
28845;DHT22;15976;47.938;7.758;2022-11-27T04:48:05;7.30;77.70
28845;DHT22;15976;47.938;7.758;2022-11-27T04:50:32;7.20;77.80
28845;DHT22;15976;47.938;7.758;2022-11-27T04:52:59;7.10;78.50
28845;DHT22;15976;47.938;7.758;2022-11-27T04:55:26;7.20;78.90
28845;DHT22;15976;47.938;7.758;2022-11-27T04:57:53;7.30;79.10
28845;DHT22;15976;47.938;7.758;2022-11-27T05:00:20;7.40;79.10
28845;DHT22;15976;47.938;7.758;2022-11-27T05:02:47;7.40;79.10
28845;DHT22;15976;47.938;7.758;2022-11-27T05:05:15;7.50;78.90
28845;DHT22;15976;47.938;7.758;2022-11-27T05:07:42;7.60;78.80
28845;DHT22;15976;47.938;7.758;2022-11-27T05:10:10;7.60;78.50
28845;DHT22;15976;47.938;7.758;2022-11-27T05:12:37;7.60;78.30
28845;DHT22;15976;47.938;7.758;2022-11-27T05:15:05;7.60;78.10
28845;DHT22;15976;47.938;7.758;2022-11-27T05:17:32;7.60;78.20
28845;DHT22;15976;47.938;7.758;2022-11-27T05:19:59;7.60;78.20
28845;DHT22;15976;47.938;7.758;2022-11-27T05:22:26;7.60;78.50
28845;DHT22;15976;47.938;7.758;2022-11-27T05:24:53;7.60;78.70
28845;DHT22;15976;47.938;7.758;2022-11-27T05:27:20;7.60;78.90
28845;DHT22;15976;47.938;7.758;2022-11-27T05:29:47;7.70;78.80
28845;DHT22;15976;47.938;7.758;2022-11-27T05:32:14;7.80;78.80
28845;DHT22;15976;47.938;7.758;2022-11-27T05:34:41;7.80;78.80
28845;DHT22;15976;47.938;7.758;2022-11-27T05:37:08;7.80;78.60
28845;DHT22;15976;47.938;7.758;2022-11-27T05:39:38;7.80;78.70
28845;DHT22;15976;47.938;7.758;2022-11-27T05:42:05;7.80;78.70
28845;DHT22;15976;47.938;7.758;2022-11-27T05:44:32;7.90;78.70
28845;DHT22;15976;47.938;7.758;2022-11-27T05:46:59;7.80;78.60
28845;DHT22;15976;47.938;7.758;2022-11-27T05:49:26;7.80;78.60
28845;DHT22;15976;47.938;7.758;2022-11-27T05:51:53;7.80;78.50
28845;DHT22;15976;47.938;7.758;2022-11-27T05:54:20;7.80;78.60
28845;DHT22;15976;47.938;7.758;2022-11-27T05:56:47;7.80;78.60
28845;DHT22;15976;47.938;7.758;2022-11-27T05:59:14;7.80;78.20
28845;DHT22;15976;47.938;7.758;2022-11-27T06:01:41;7.70;78.00
28845;DHT22;15976;47.938;7.758;2022-11-27T06:04:08;7.70;78.00
28845;DHT22;15976;47.938;7.758;2022-11-27T06:06:35;7.60;77.50
28845;DHT22;15976;47.938;7.758;2022-11-27T06:09:03;7.50;77.60
28845;DHT22;15976;47.938;7.758;2022-11-27T06:11:37;7.30;77.30
28845;DHT22;15976;47.938;7.758;2022-11-27T06:14:07;7.20;77.50
28845;DHT22;15976;47.938;7.758;2022-11-27T06:16:34;7.10;78.40
28845;DHT22;15976;47.938;7.758;2022-11-27T06:19:02;7.00;77.80
28845;DHT22;15976;47.938;7.758;2022-11-27T06:21:29;7.00;78.10
28845;DHT22;15976;47.938;7.758;2022-11-27T06:23:56;7.00;78.40
28845;DHT22;15976;47.938;7.758;2022-11-27T06:26:28;7.00;78.40
28845;DHT22;15976;47.938;7.758;2022-11-27T06:28:57;7.10;78.50
28845;DHT22;15976;47.938;7.758;2022-11-27T06:31:26;7.20;78.30
28845;DHT22;15976;47.938;7.758;2022-11-27T06:33:54;7.10;78.30
28845;DHT22;15976;47.938;7.758;2022-11-27T06:36:28;7.10;78.70
28845;DHT22;15976;47.938;7.758;2022-11-27T06:38:55;7.20;79.00
28845;DHT22;15976;47.938;7.758;2022-11-27T06:41:24;7.30;79.10
28845;DHT22;15976;47.938;7.758;2022-11-27T06:43:53;7.40;79.00
28845;DHT22;15976;47.938;7.758;2022-11-27T06:46:22;7.40;78.70
28845;DHT22;15976;47.938;7.758;2022-11-27T06:48:50;7.40;78.60
28845;DHT22;15976;47.938;7.758;2022-11-27T06:51:20;7.40;78.60
28845;DHT22;15976;47.938;7.758;2022-11-27T06:53:49;7.40;78.50
28845;DHT22;15976;47.938;7.758;2022-11-27T06:56:19;7.50;78.50
28845;DHT22;15976;47.938;7.758;2022-11-27T06:58:53;7.50;78.40
28845;DHT22;15976;47.938;7.758;2022-11-27T07:01:21;7.50;78.70
28845;DHT22;15976;47.938;7.758;2022-11-27T07:03:49;7.50;78.80
28845;DHT22;15976;47.938;7.758;2022-11-27T07:06:21;7.60;78.70
28845;DHT22;15976;47.938;7.758;2022-11-27T07:08:48;7.60;78.60
28845;DHT22;15976;47.938;7.758;2022-11-27T07:11:18;7.60;78.60
28845;DHT22;15976;47.938;7.758;2022-11-27T07:13:46;7.60;78.40
28845;DHT22;15976;47.938;7.758;2022-11-27T07:16:15;7.50;77.90
28845;DHT22;15976;47.938;7.758;2022-11-27T07:18:54;7.50;78.00
28845;DHT22;15976;47.938;7.758;2022-11-27T07:21:21;7.40;78.20
28845;DHT22;15976;47.938;7.758;2022-11-27T07:23:48;7.30;78.40
28845;DHT22;15976;47.938;7.758;2022-11-27T07:26:18;7.30;78.80
28845;DHT22;15976;47.938;7.758;2022-11-27T07:28:45;7.40;78.70
28845;DHT22;15976;47.938;7.758;2022-11-27T07:31:16;7.30;78.60
28845;DHT22;15976;47.938;7.758;2022-11-27T07:33:43;7.40;78.70
28845;DHT22;15976;47.938;7.758;2022-11-27T07:36:17;7.40;78.70
28845;DHT22;15976;47.938;7.758;2022-11-27T07:38:44;7.40;78.50
28845;DHT22;15976;47.938;7.758;2022-11-27T07:41:12;7.40;78.60
28845;DHT22;15976;47.938;7.758;2022-11-27T07:43:40;7.40;78.60
28845;DHT22;15976;47.938;7.758;2022-11-27T07:46:14;7.40;78.70
28845;DHT22;15976;47.938;7.758;2022-11-27T07:48:41;7.50;79.00
28845;DHT22;15976;47.938;7.758;2022-11-27T07:51:10;7.60;79.30
28845;DHT22;15976;47.938;7.758;2022-11-27T07:53:39;7.60;79.20
28845;DHT22;15976;47.938;7.758;2022-11-27T07:56:08;7.70;79.40
28845;DHT22;15976;47.938;7.758;2022-11-27T07:58:35;7.70;79.50
28845;DHT22;15976;47.938;7.758;2022-11-27T08:01:11;7.80;79.50
28845;DHT22;15976;47.938;7.758;2022-11-27T08:03:38;7.90;79.40
28845;DHT22;15976;47.938;7.758;2022-11-27T08:06:13;7.90;79.30
28845;DHT22;15976;47.938;7.758;2022-11-27T08:08:41;8.00;79.30
28845;DHT22;15976;47.938;7.758;2022-11-27T08:11:20;8.00;79.20
28845;DHT22;15976;47.938;7.758;2022-11-27T08:13:48;8.00;78.90
28845;DHT22;15976;47.938;7.758;2022-11-27T08:16:15;8.00;78.80
28845;DHT22;15976;47.938;7.758;2022-11-27T08:18:43;8.00;79.00
28845;DHT22;15976;47.938;7.758;2022-11-27T08:21:10;8.00;78.70
28845;DHT22;15976;47.938;7.758;2022-11-27T08:23:37;8.00;78.70
28845;DHT22;15976;47.938;7.758;2022-11-27T08:26:08;8.00;78.90
28845;DHT22;15976;47.938;7.758;2022-11-27T08:28:36;8.00;78.90
28845;DHT22;15976;47.938;7.758;2022-11-27T08:31:05;8.00;78.80
28845;DHT22;15976;47.938;7.758;2022-11-27T08:33:33;8.00;78.50
28845;DHT22;15976;47.938;7.758;2022-11-27T08:36:00;8.00;78.40
28845;DHT22;15976;47.938;7.758;2022-11-27T08:38:27;8.10;79.30
28845;DHT22;15976;47.938;7.758;2022-11-27T08:41:00;8.20;79.50
28845;DHT22;15976;47.938;7.758;2022-11-27T08:43:28;8.40;80.20
28845;DHT22;15976;47.938;7.758;2022-11-27T08:45:56;8.50;78.70
28845;DHT22;15976;47.938;7.758;2022-11-27T08:48:23;8.50;78.10
28845;DHT22;15976;47.938;7.758;2022-11-27T08:50:51;8.50;78.00
28845;DHT22;15976;47.938;7.758;2022-11-27T08:53:19;8.50;78.30
28845;DHT22;15976;47.938;7.758;2022-11-27T08:55:46;8.60;78.80
28845;DHT22;15976;47.938;7.758;2022-11-27T08:58:13;8.70;79.80
28845;DHT22;15976;47.938;7.758;2022-11-27T09:00:41;8.80;79.30
28845;DHT22;15976;47.938;7.758;2022-11-27T09:03:10;8.90;79.50
28845;DHT22;15976;47.938;7.758;2022-11-27T09:05:41;9.10;79.40
28845;DHT22;15976;47.938;7.758;2022-11-27T09:08:09;9.10;78.80
28845;DHT22;15976;47.938;7.758;2022-11-27T09:10:39;9.10;78.30
28845;DHT22;15976;47.938;7.758;2022-11-27T09:13:06;9.10;78.10
28845;DHT22;15976;47.938;7.758;2022-11-27T09:15:33;9.00;78.10
28845;DHT22;15976;47.938;7.758;2022-11-27T09:18:00;9.00;78.20
28845;DHT22;15976;47.938;7.758;2022-11-27T09:20:27;9.00;78.20
28845;DHT22;15976;47.938;7.758;2022-11-27T09:22:54;9.00;78.10
28845;DHT22;15976;47.938;7.758;2022-11-27T09:25:21;9.00;77.80
28845;DHT22;15976;47.938;7.758;2022-11-27T09:27:48;8.90;78.20
28845;DHT22;15976;47.938;7.758;2022-11-27T09:30:16;8.80;77.50
28845;DHT22;15976;47.938;7.758;2022-11-27T09:32:43;8.80;78.20
28845;DHT22;15976;47.938;7.758;2022-11-27T09:35:10;8.90;78.30
28845;DHT22;15976;47.938;7.758;2022-11-27T09:37:37;8.90;78.10
28845;DHT22;15976;47.938;7.758;2022-11-27T09:40:05;9.00;78.00
28845;DHT22;15976;47.938;7.758;2022-11-27T09:45:44;9.00;77.80
28845;DHT22;15976;47.938;7.758;2022-11-27T09:48:18;9.10;77.90
28845;DHT22;15976;47.938;7.758;2022-11-27T09:50:50;9.20;77.40
28845;DHT22;15976;47.938;7.758;2022-11-27T09:53:48;9.20;77.30
28845;DHT22;15976;47.938;7.758;2022-11-27T09:56:18;9.20;77.50
28845;DHT22;15976;47.938;7.758;2022-11-27T09:58:56;9.30;77.90
28845;DHT22;15976;47.938;7.758;2022-11-27T10:01:26;9.40;77.80
28845;DHT22;15976;47.938;7.758;2022-11-27T10:04:14;9.40;77.50
28845;DHT22;15976;47.938;7.758;2022-11-27T10:07:07;9.50;77.50
28845;DHT22;15976;47.938;7.758;2022-11-27T10:25:42;9.70;77.20
28845;DHT22;15976;47.938;7.758;2022-11-27T10:31:21;9.90;77.50
28845;DHT22;15976;47.938;7.758;2022-11-27T10:33:54;9.90;77.20
28845;DHT22;15976;47.938;7.758;2022-11-27T10:36:42;9.90;76.90
28845;DHT22;15976;47.938;7.758;2022-11-27T10:39:16;9.90;77.10
28845;DHT22;15976;47.938;7.758;2022-11-27T10:42:24;10.00;77.30
28845;DHT22;15976;47.938;7.758;2022-11-27T10:45:03;10.10;77.30
28845;DHT22;15976;47.938;7.758;2022-11-27T10:47:32;10.10;77.00
28845;DHT22;15976;47.938;7.758;2022-11-27T10:50:00;10.20;76.90
28845;DHT22;15976;47.938;7.758;2022-11-27T10:52:27;10.10;76.50
28845;DHT22;15976;47.938;7.758;2022-11-27T10:55:00;10.20;76.60
28845;DHT22;15976;47.938;7.758;2022-11-27T11:00:18;10.30;77.10
28845;DHT22;15976;47.938;7.758;2022-11-27T11:02:45;10.40;77.10
28845;DHT22;15976;47.938;7.758;2022-11-27T11:05:22;10.50;77.20
28845;DHT22;15976;47.938;7.758;2022-11-27T11:08:18;10.60;77.20
28845;DHT22;15976;47.938;7.758;2022-11-27T11:10:51;10.70;77.30
28845;DHT22;15976;47.938;7.758;2022-11-27T11:13:21;10.80;77.20
28845;DHT22;15976;47.938;7.758;2022-11-27T11:16:40;10.90;77.40
28845;DHT22;15976;47.938;7.758;2022-11-27T11:18:47;11.00;77.20
28845;DHT22;15976;47.938;7.758;2022-11-27T11:21:37;11.10;77.10
28845;DHT22;15976;47.938;7.758;2022-11-27T11:24:28;11.20;77.00
28845;DHT22;15976;47.938;7.758;2022-11-27T11:27:04;11.30;76.80
28845;DHT22;15976;47.938;7.758;2022-11-27T11:29:35;11.40;76.60
28845;DHT22;15976;47.938;7.758;2022-11-27T11:32:13;11.50;76.60
28845;DHT22;15976;47.938;7.758;2022-11-27T11:37:29;11.60;75.40
28845;DHT22;15976;47.938;7.758;2022-11-27T11:40:02;11.50;75.00
28845;DHT22;15976;47.938;7.758;2022-11-27T11:42:32;11.50;75.60
28845;DHT22;15976;47.938;7.758;2022-11-27T11:45:15;11.50;75.30
28845;DHT22;15976;47.938;7.758;2022-11-27T11:47:48;11.60;75.30
28845;DHT22;15976;47.938;7.758;2022-11-27T11:50:44;11.60;75.40
28845;DHT22;15976;47.938;7.758;2022-11-27T11:53:24;11.60;75.70
28845;DHT22;15976;47.938;7.758;2022-11-27T12:21:45;11.50;73.90
28845;DHT22;15976;47.938;7.758;2022-11-27T12:24:37;11.50;73.70
28845;DHT22;15976;47.938;7.758;2022-11-27T12:38:10;11.40;73.50
28845;DHT22;15976;47.938;7.758;2022-11-27T12:43:48;11.30;73.20
28845;DHT22;15976;47.938;7.758;2022-11-27T12:46:23;11.30;73.40
28845;DHT22;15976;47.938;7.758;2022-11-27T12:48:59;11.30;73.30
28845;DHT22;15976;47.938;7.758;2022-11-27T12:54:24;11.30;73.40
28845;DHT22;15976;47.938;7.758;2022-11-27T12:56:59;11.20;73.20
28845;DHT22;15976;47.938;7.758;2022-11-27T12:59:46;11.20;73.60
28845;DHT22;15976;47.938;7.758;2022-11-27T13:02:33;11.20;73.40
28845;DHT22;15976;47.938;7.758;2022-11-27T13:05:05;11.20;73.40
28845;DHT22;15976;47.938;7.758;2022-11-27T13:07:47;11.30;74.30
28845;DHT22;15976;47.938;7.758;2022-11-27T13:10:21;11.30;73.30
28845;DHT22;15976;47.938;7.758;2022-11-27T13:15:52;11.20;73.30
28845;DHT22;15976;47.938;7.758;2022-11-27T13:18:34;11.20;73.40
28845;DHT22;15976;47.938;7.758;2022-11-27T13:21:07;11.20;73.40
28845;DHT22;15976;47.938;7.758;2022-11-27T13:23:35;11.20;73.30
28845;DHT22;15976;47.938;7.758;2022-11-27T13:26:15;11.20;73.40
28845;DHT22;15976;47.938;7.758;2022-11-27T13:28:54;11.20;73.30
28845;DHT22;15976;47.938;7.758;2022-11-27T13:31:26;11.20;73.20
28845;DHT22;15976;47.938;7.758;2022-11-27T13:34:00;11.20;73.20
28845;DHT22;15976;47.938;7.758;2022-11-27T13:36:37;11.30;73.20
28845;DHT22;15976;47.938;7.758;2022-11-27T13:39:05;11.30;73.10
28845;DHT22;15976;47.938;7.758;2022-11-27T13:41:38;11.20;72.90
28845;DHT22;15976;47.938;7.758;2022-11-27T13:44:38;11.30;72.80
28845;DHT22;15976;47.938;7.758;2022-11-27T13:47:16;11.30;72.80
28845;DHT22;15976;47.938;7.758;2022-11-27T13:49:44;11.30;72.80
28845;DHT22;15976;47.938;7.758;2022-11-27T13:52:15;11.30;72.80
28845;DHT22;15976;47.938;7.758;2022-11-27T13:57:20;11.30;72.50
28845;DHT22;15976;47.938;7.758;2022-11-27T13:59:55;11.20;72.40
28845;DHT22;15976;47.938;7.758;2022-11-27T14:02:24;11.30;72.50
28845;DHT22;15976;47.938;7.758;2022-11-27T14:04:52;11.20;72.40
28845;DHT22;15976;47.938;7.758;2022-11-27T14:07:23;11.20;72.40
28845;DHT22;15976;47.938;7.758;2022-11-27T14:10:08;11.20;72.40
28845;DHT22;15976;47.938;7.758;2022-11-27T14:12:37;11.20;72.30
28845;DHT22;15976;47.938;7.758;2022-11-27T14:15:09;11.20;72.30
28845;DHT22;15976;47.938;7.758;2022-11-27T14:17:42;11.20;72.40
28845;DHT22;15976;47.938;7.758;2022-11-27T14:25:32;11.20;72.30
28845;DHT22;15976;47.938;7.758;2022-11-27T14:28:15;11.20;72.20
28845;DHT22;15976;47.938;7.758;2022-11-27T14:30:50;11.20;72.20
28845;DHT22;15976;47.938;7.758;2022-11-27T14:33:33;11.20;72.20
28845;DHT22;15976;47.938;7.758;2022-11-27T14:36:23;11.10;72.20
28845;DHT22;15976;47.938;7.758;2022-11-27T14:38:51;11.10;72.10
28845;DHT22;15976;47.938;7.758;2022-11-27T14:41:21;11.00;72.10
28845;DHT22;15976;47.938;7.758;2022-11-27T14:44:05;11.00;72.10
28845;DHT22;15976;47.938;7.758;2022-11-27T14:46:34;11.00;72.20
28845;DHT22;15976;47.938;7.758;2022-11-27T14:49:03;11.00;72.20
28845;DHT22;15976;47.938;7.758;2022-11-27T14:51:31;10.90;71.90
28845;DHT22;15976;47.938;7.758;2022-11-27T14:54:10;10.90;71.90
28845;DHT22;15976;47.938;7.758;2022-11-27T14:56:42;10.80;72.20
28845;DHT22;15976;47.938;7.758;2022-11-27T14:59:18;10.80;72.20
28845;DHT22;15976;47.938;7.758;2022-11-27T15:01:57;10.70;72.10
28845;DHT22;15976;47.938;7.758;2022-11-27T15:04:34;10.70;72.60
28845;DHT22;15976;47.938;7.758;2022-11-27T15:09:45;10.70;72.40
28845;DHT22;15976;47.938;7.758;2022-11-27T15:17:28;10.70;72.60
28845;DHT22;15976;47.938;7.758;2022-11-27T15:19:59;10.70;72.80
28845;DHT22;15976;47.938;7.758;2022-11-27T15:22:27;10.70;72.80
28845;DHT22;15976;47.938;7.758;2022-11-27T15:25:02;10.70;72.70
28845;DHT22;15976;47.938;7.758;2022-11-27T15:27:31;10.60;72.60
28845;DHT22;15976;47.938;7.758;2022-11-27T15:30:10;10.60;72.60
28845;DHT22;15976;47.938;7.758;2022-11-27T15:32:46;10.60;72.60
28845;DHT22;15976;47.938;7.758;2022-11-27T15:35:30;10.60;72.50
28845;DHT22;15976;47.938;7.758;2022-11-27T15:38:09;10.60;72.50
28845;DHT22;15976;47.938;7.758;2022-11-27T15:40:38;10.50;72.50
28845;DHT22;15976;47.938;7.758;2022-11-27T15:43:14;10.50;72.60
28845;DHT22;15976;47.938;7.758;2022-11-27T15:45:42;10.50;72.50
28845;DHT22;15976;47.938;7.758;2022-11-27T15:48:15;10.50;72.40
28845;DHT22;15976;47.938;7.758;2022-11-27T15:50:42;10.40;72.40
28845;DHT22;15976;47.938;7.758;2022-11-27T15:53:17;10.30;72.30
28845;DHT22;15976;47.938;7.758;2022-11-27T15:55:44;10.30;72.40
28845;DHT22;15976;47.938;7.758;2022-11-27T15:58:11;10.30;72.70
28845;DHT22;15976;47.938;7.758;2022-11-27T16:00:38;10.20;72.60
28845;DHT22;15976;47.938;7.758;2022-11-27T16:03:06;10.20;72.60
28845;DHT22;15976;47.938;7.758;2022-11-27T16:05:33;10.20;72.80
28845;DHT22;15976;47.938;7.758;2022-11-27T16:08:01;10.20;73.00
28845;DHT22;15976;47.938;7.758;2022-11-27T16:10:28;10.20;73.10
28845;DHT22;15976;47.938;7.758;2022-11-27T16:12:55;10.20;73.20
28845;DHT22;15976;47.938;7.758;2022-11-27T16:15:24;10.20;73.10
28845;DHT22;15976;47.938;7.758;2022-11-27T16:17:58;10.20;73.10
28845;DHT22;15976;47.938;7.758;2022-11-27T16:20:26;10.20;72.70
28845;DHT22;15976;47.938;7.758;2022-11-27T16:22:53;10.10;72.50
28845;DHT22;15976;47.938;7.758;2022-11-27T16:25:20;10.00;72.50
28845;DHT22;15976;47.938;7.758;2022-11-27T16:27:47;9.90;72.80
28845;DHT22;15976;47.938;7.758;2022-11-27T16:30:14;9.90;73.90
28845;DHT22;15976;47.938;7.758;2022-11-27T16:32:41;9.90;73.10
28845;DHT22;15976;47.938;7.758;2022-11-27T16:35:09;9.90;73.20
28845;DHT22;15976;47.938;7.758;2022-11-27T16:37:39;9.90;73.20
28845;DHT22;15976;47.938;7.758;2022-11-27T16:40:07;9.90;73.40
28845;DHT22;15976;47.938;7.758;2022-11-27T16:42:34;10.00;74.40
28845;DHT22;15976;47.938;7.758;2022-11-27T16:45:01;10.00;73.60
28845;DHT22;15976;47.938;7.758;2022-11-27T16:47:28;10.00;73.80
28845;DHT22;15976;47.938;7.758;2022-11-27T16:50:03;10.00;74.00
28845;DHT22;15976;47.938;7.758;2022-11-27T16:52:32;10.00;73.90
28845;DHT22;15976;47.938;7.758;2022-11-27T16:54:59;10.00;73.90
28845;DHT22;15976;47.938;7.758;2022-11-27T16:57:26;10.10;74.00
28845;DHT22;15976;47.938;7.758;2022-11-27T16:59:54;10.10;74.00
28845;DHT22;15976;47.938;7.758;2022-11-27T17:02:21;10.10;74.00
28845;DHT22;15976;47.938;7.758;2022-11-27T17:04:49;10.10;74.00
28845;DHT22;15976;47.938;7.758;2022-11-27T17:07:16;10.10;73.90
28845;DHT22;15976;47.938;7.758;2022-11-27T17:09:43;10.20;74.00
28845;DHT22;15976;47.938;7.758;2022-11-27T17:12:10;10.10;74.00
28845;DHT22;15976;47.938;7.758;2022-11-27T17:14:37;10.10;74.00
28845;DHT22;15976;47.938;7.758;2022-11-27T17:17:06;10.10;74.10
28845;DHT22;15976;47.938;7.758;2022-11-27T17:19:34;10.10;74.10
28845;DHT22;15976;47.938;7.758;2022-11-27T17:22:02;10.10;74.00
28845;DHT22;15976;47.938;7.758;2022-11-27T17:24:33;10.10;74.70
28845;DHT22;15976;47.938;7.758;2022-11-27T17:27:04;10.10;73.80
28845;DHT22;15976;47.938;7.758;2022-11-27T17:29:34;10.00;73.60
28845;DHT22;15976;47.938;7.758;2022-11-27T17:32:03;10.00;73.70
28845;DHT22;15976;47.938;7.758;2022-11-27T17:34:32;10.00;73.70
28845;DHT22;15976;47.938;7.758;2022-11-27T17:36:59;10.00;73.80
28845;DHT22;15976;47.938;7.758;2022-11-27T17:39:28;9.90;73.60
28845;DHT22;15976;47.938;7.758;2022-11-27T17:41:55;9.90;73.60
28845;DHT22;15976;47.938;7.758;2022-11-27T17:44:22;9.90;73.70
28845;DHT22;15976;47.938;7.758;2022-11-27T17:46:50;9.90;73.80
28845;DHT22;15976;47.938;7.758;2022-11-27T17:49:18;9.90;74.00
28845;DHT22;15976;47.938;7.758;2022-11-27T17:51:48;9.90;74.10
28845;DHT22;15976;47.938;7.758;2022-11-27T17:54:16;9.90;74.20
28845;DHT22;15976;47.938;7.758;2022-11-27T17:56:44;9.90;74.10
28845;DHT22;15976;47.938;7.758;2022-11-27T17:59:18;9.90;74.20
28845;DHT22;15976;47.938;7.758;2022-11-27T18:01:45;9.90;74.30
28845;DHT22;15976;47.938;7.758;2022-11-27T18:04:14;9.80;74.30
28845;DHT22;15976;47.938;7.758;2022-11-27T18:06:41;9.90;74.40
28845;DHT22;15976;47.938;7.758;2022-11-27T18:09:08;9.90;74.20
28845;DHT22;15976;47.938;7.758;2022-11-27T18:11:37;9.90;74.20
28845;DHT22;15976;47.938;7.758;2022-11-27T18:14:05;9.90;74.20
28845;DHT22;15976;47.938;7.758;2022-11-27T18:16:35;9.80;74.30